AirNav   ATP
 
 976 users online  

2OK2 Twin Lakes Airport
Midwest City, Oklahoma, USA

GOING TO MIDWEST CITY?


FAA INFORMATION EFFECTIVE 14 SEPTEMBER 2017

Location

FAA Identifier: 2OK2
Lat/Long: 35-19-45.2390N / 097-16-11.1080W
35-19.753983N / 097-16.185133W
35.3292331 / -97.2697522
(estimated)
Elevation: 1199 ft. / 365 m (estimated)
Variation: 07E (1985)
From city: 10 miles SE of MIDWEST CITY, OK
Time zone: UTC -5 (UTC -6 during Standard Time)
Zip code: 73165

Airport Operations

Airport use: Private use. Permission required prior to landing
Control tower: no
ARTCC: FORT WORTH CENTER
FSS: MC ALESTER FLIGHT SERVICE STATION
Attendance: UNATNDD
Wind indicator: yes
Segmented circle: no
Lights: ACTVT LIRL RY N/S - 122.7.

Airport Communications

UNICOM: 122.7
WX AWOS-3 at OUN (11 nm SW): 119.55 (405-325-7302)
WX AWOS-3 at SNL (16 nm E): 118.275 (405-878-1745)
WX ASOS at OKC (17 nm W): PHONE 405-686-4711

Nearby radio navigation aids

VOR radial/distance  VOR name  Freq  Var
IRWr089/16.7WILL ROGERS VORTAC114.1007E
PWAr116/22.1WILEY POST VOR/DME113.4008E

 
NDB name  Hdg/Dist  Freq  Var  ID
NORMAN057/10.937007EOUN --- ..- -.
MULDROW348/18.151206EHMY .... -- -.--
SEMINOLE271/29.327806ESRE ... .-. .
TILGHMAN217/32.439606ECQB -.-. --.- -...

Airport Services

Airframe service: NONE
Powerplant service: NONE

Runway Information

Runway N/S

Dimensions: 2702 x 30 ft. / 824 x 9 m
Surface: concrete
Runway edge lights: low intensity
RUNWAY N  RUNWAY S
Traffic pattern: rightleft
Obstructions: 300 ft. pline, 4000 ft. from runwaynone

Airport Ownership and Management from official FAA records

Ownership: Privately-owned
Owner: PILOTS HAVEN AIRPORT INC
13800 CHANDELLE DRIVE
NEWALLA, OK 74857
Phone 405-819-6671
Manager: SANDY SHARPE
13800 SKY HARBOR WAY
NEWALLA, OK 74857
Phone 405-819-6671

Airport Operational Statistics

Aircraft based on the field: 16
Single engine airplanes: 15
Multi engine airplanes: 1
    

Additional Remarks

SHARP DROP OFF AT EACH END OF RWY.
HIGH LINE AT RIGHT ANGLE TO RWY-APRX 3/4MI FM S END OF RWY.
AIRPORT TRAFFIC REMAIN EAST OF RY.

Instrument Procedures

There are no published instrument procedures at 2OK2.

Some nearby airports with instrument procedures:

KTIK - Tinker Air Force Base (8 nm NW)
KOUN - University of Oklahoma Westheimer Airport (11 nm SW)
1K4 - David Jay Perry Airport (14 nm SW)
KSNL - Shawnee Regional Airport (16 nm E)
KOKC - Will Rogers World Airport (17 nm W)
KHMY - Muldrow Army Heliport (18 nm S)
 
Loc | Ops | Rwys | IFR | FBO | Links
Com | Nav | Svcs | Stats | Notes


 
Area around 2OK2 (Twin Lakes Airport)
 
Road maps at: MapQuest Bing Google
 
Aerial photo
WARNING: Photo may not be current or correct
Aerial photo of 2OK2 (Twin Lakes Airport)
Do you have a better or more recent aerial photo of Twin Lakes Airport that you would like to share? If so, please send us your photo.

 
Sectional chart

 
Airport distance calculator
Flying to Twin Lakes Airport? Find the distance to fly.

From to 2OK2

Sunrise and sunset
Times for 24-Sep-2017
 Local
(UTC-5)
 Zulu
(UTC)
Morning civil twilight06:5411:54
Sunrise07:2012:20
Sunset19:2300:23
Evening civil twilight19:4800:48

Current date and time
Zulu (UTC)  24-Sep-2017 20:18:13
Local (UTC-5)  24-Sep-2017 15:18:13
 
METAR
KTIK 
7nm NW 
241956Z AUTO 16012G19KT 10SM FEW050 30/17 A2989 RMK AO2 SLP115 T03020169 $
KOUN 
11nm SW 
241955Z AUTO 14015G22KT 10SM SCT050 30/17 A2990 RMK AO2
KSNL 
16nm E 
241955Z AUTO 15012G18KT 10SM SCT050 30/18 A2990 RMK AO2 T03040179
KOKC 
16nm W 
241952Z 18013KT 10SM FEW040 SCT055 SCT180 BKN250 30/17 A2989 RMK AO2 SLP106 T03000167
KHMY 
18nm S 
SuperAWOS
241855Z AUTO 16014G23KT 30/19 A2992
TAF
KTIK 
7nm NW 
241700Z 2417/2523 17012G20KT 9999 FEW050 QNH2988INS BECMG 2423/2424 16009KT 9999 SCT030 QNH2990INS BECMG 2514/2515 18012G20KT 9999 SCT035 SCT100 QNH2986INS TX33/2420Z TN21/2511Z
KOUN 
11nm SW 
241720Z 2418/2518 17013G19KT P6SM SCT035 BKN250 FM250000 13009KT P6SM BKN150 FM251500 16010KT P6SM OVC050
KOKC 
16nm W 
241720Z 2418/2518 17014G21KT P6SM SCT035 BKN250 FM250000 13010KT P6SM BKN150 FM251500 16010KT P6SM OVC050
NOTAMs
Click for the latest NOTAMs
NOTAMs are issued by the DoD/FAA and will open in a separate window not controlled by AirNav.

 

 
 

Would you like to see your business listed on this page?

 If your business provides an interesting product or service to pilots, flight crews, aircraft, or users of the Twin Lakes Airport, you should consider listing it here.  To start the listing process, click on the button below
 
Add a business
 

Other Pages about Twin Lakes Airport

Update a link
 
Copyright © AirNav, LLC. All rights reserved. Privacy Policy  Contact